sensor_id;sensor_type;location;lat;lon;timestamp;P1;durP1;ratioP1;P2;durP2;ratioP2
59926;SDS011;45784;55.156;73.270;2022-07-26T00:00:14;13.77;;;5.05;;
59926;SDS011;45784;55.156;73.270;2022-07-26T00:02:42;10.90;;;4.50;;
59926;SDS011;45784;55.156;73.270;2022-07-26T00:05:08;16.42;;;4.47;;
59926;SDS011;45784;55.156;73.270;2022-07-26T00:07:35;10.43;;;4.60;;
59926;SDS011;45784;55.156;73.270;2022-07-26T00:10:03;9.55;;;4.65;;
59926;SDS011;45784;55.156;73.270;2022-07-26T00:12:31;8.98;;;5.03;;
59926;SDS011;45784;55.156;73.270;2022-07-26T00:14:58;10.43;;;5.15;;
59926;SDS011;45784;55.156;73.270;2022-07-26T00:17:25;14.38;;;4.88;;
59926;SDS011;45784;55.156;73.270;2022-07-26T00:19:51;11.48;;;4.78;;
59926;SDS011;45784;55.156;73.270;2022-07-26T00:22:18;9.55;;;4.50;;
59926;SDS011;45784;55.156;73.270;2022-07-26T00:25:04;12.38;;;4.63;;
59926;SDS011;45784;55.156;73.270;2022-07-26T00:27:34;11.88;;;4.50;;
59926;SDS011;45784;55.156;73.270;2022-07-26T00:30:03;8.63;;;4.93;;
59926;SDS011;45784;55.156;73.270;2022-07-26T00:32:31;16.50;;;5.05;;
59926;SDS011;45784;55.156;73.270;2022-07-26T00:34:58;10.65;;;4.88;;
59926;SDS011;45784;55.156;73.270;2022-07-26T00:37:25;12.75;;;5.07;;
59926;SDS011;45784;55.156;73.270;2022-07-26T00:39:51;13.65;;;4.88;;
59926;SDS011;45784;55.156;73.270;2022-07-26T00:42:18;13.20;;;4.80;;
59926;SDS011;45784;55.156;73.270;2022-07-26T00:44:45;13.90;;;5.43;;
59926;SDS011;45784;55.156;73.270;2022-07-26T00:47:12;8.23;;;4.30;;
59926;SDS011;45784;55.156;73.270;2022-07-26T00:49:40;8.48;;;4.63;;
59926;SDS011;45784;55.156;73.270;2022-07-26T00:52:08;8.45;;;4.60;;
59926;SDS011;45784;55.156;73.270;2022-07-26T00:54:36;13.75;;;5.25;;
59926;SDS011;45784;55.156;73.270;2022-07-26T00:57:03;17.70;;;5.25;;
59926;SDS011;45784;55.156;73.270;2022-07-26T00:59:31;20.05;;;5.13;;
59926;SDS011;45784;55.156;73.270;2022-07-26T01:01:58;15.40;;;5.78;;
59926;SDS011;45784;55.156;73.270;2022-07-26T01:04:24;18.60;;;5.75;;
59926;SDS011;45784;55.156;73.270;2022-07-26T01:06:52;12.23;;;5.07;;
59926;SDS011;45784;55.156;73.270;2022-07-26T01:09:20;15.55;;;5.20;;
59926;SDS011;45784;55.156;73.270;2022-07-26T01:11:47;13.77;;;5.15;;
59926;SDS011;45784;55.156;73.270;2022-07-26T01:14:13;26.83;;;5.97;;
59926;SDS011;45784;55.156;73.270;2022-07-26T01:16:41;17.33;;;5.32;;
59926;SDS011;45784;55.156;73.270;2022-07-26T01:19:09;21.88;;;5.47;;
59926;SDS011;45784;55.156;73.270;2022-07-26T01:21:36;16.13;;;5.80;;
59926;SDS011;45784;55.156;73.270;2022-07-26T01:24:02;16.45;;;5.65;;
59926;SDS011;45784;55.156;73.270;2022-07-26T01:26:30;20.88;;;5.35;;
59926;SDS011;45784;55.156;73.270;2022-07-26T01:28:57;18.77;;;6.28;;
59926;SDS011;45784;55.156;73.270;2022-07-26T01:31:23;27.75;;;6.50;;
59926;SDS011;45784;55.156;73.270;2022-07-26T01:33:50;23.83;;;6.50;;
59926;SDS011;45784;55.156;73.270;2022-07-26T01:36:18;24.95;;;7.05;;
59926;SDS011;45784;55.156;73.270;2022-07-26T01:38:45;21.83;;;7.03;;
59926;SDS011;45784;55.156;73.270;2022-07-26T01:41:11;16.13;;;6.55;;
59926;SDS011;45784;55.156;73.270;2022-07-26T01:43:38;23.63;;;6.75;;
59926;SDS011;45784;55.156;73.270;2022-07-26T01:46:05;17.55;;;7.20;;
59926;SDS011;45784;55.156;73.270;2022-07-26T01:48:33;34.60;;;6.93;;
59926;SDS011;45784;55.156;73.270;2022-07-26T01:51:00;33.05;;;6.95;;
59926;SDS011;45784;55.156;73.270;2022-07-26T01:53:27;13.68;;;6.78;;
59926;SDS011;45784;55.156;73.270;2022-07-26T01:55:54;17.45;;;6.88;;
59926;SDS011;45784;55.156;73.270;2022-07-26T01:58:21;13.20;;;6.43;;
59926;SDS011;45784;55.156;73.270;2022-07-26T02:00:48;19.58;;;6.38;;
59926;SDS011;45784;55.156;73.270;2022-07-26T02:03:15;30.02;;;6.43;;
59926;SDS011;45784;55.156;73.270;2022-07-26T02:05:42;13.50;;;5.88;;
59926;SDS011;45784;55.156;73.270;2022-07-26T02:08:09;15.32;;;7.07;;
59926;SDS011;45784;55.156;73.270;2022-07-26T02:10:36;22.23;;;6.68;;
59926;SDS011;45784;55.156;73.270;2022-07-26T02:13:21;11.43;;;6.47;;
59926;SDS011;45784;55.156;73.270;2022-07-26T02:15:48;19.48;;;6.72;;
59926;SDS011;45784;55.156;73.270;2022-07-26T02:18:15;21.20;;;6.32;;
59926;SDS011;45784;55.156;73.270;2022-07-26T02:20:42;16.60;;;6.43;;
59926;SDS011;45784;55.156;73.270;2022-07-26T02:23:08;18.15;;;6.80;;
59926;SDS011;45784;55.156;73.270;2022-07-26T02:25:35;19.35;;;6.70;;
59926;SDS011;45784;55.156;73.270;2022-07-26T02:28:02;19.85;;;7.20;;
59926;SDS011;45784;55.156;73.270;2022-07-26T02:30:29;19.17;;;6.15;;
59926;SDS011;45784;55.156;73.270;2022-07-26T02:32:56;18.42;;;6.90;;
59926;SDS011;45784;55.156;73.270;2022-07-26T02:35:23;14.43;;;6.70;;
59926;SDS011;45784;55.156;73.270;2022-07-26T02:37:49;25.02;;;6.70;;
59926;SDS011;45784;55.156;73.270;2022-07-26T02:40:16;20.48;;;6.45;;
59926;SDS011;45784;55.156;73.270;2022-07-26T02:42:43;17.40;;;6.28;;
59926;SDS011;45784;55.156;73.270;2022-07-26T02:45:10;11.57;;;5.95;;
59926;SDS011;45784;55.156;73.270;2022-07-26T02:47:47;25.30;;;6.05;;
59926;SDS011;45784;55.156;73.270;2022-07-26T02:50:16;20.75;;;6.20;;
59926;SDS011;45784;55.156;73.270;2022-07-26T02:52:43;19.00;;;5.95;;
59926;SDS011;45784;55.156;73.270;2022-07-26T02:55:13;20.20;;;6.78;;
59926;SDS011;45784;55.156;73.270;2022-07-26T02:57:41;16.63;;;6.32;;
59926;SDS011;45784;55.156;73.270;2022-07-26T03:00:09;18.20;;;6.15;;
59926;SDS011;45784;55.156;73.270;2022-07-26T03:02:37;14.77;;;6.30;;
59926;SDS011;45784;55.156;73.270;2022-07-26T03:05:05;14.95;;;7.00;;
59926;SDS011;45784;55.156;73.270;2022-07-26T03:07:32;21.67;;;6.40;;
59926;SDS011;45784;55.156;73.270;2022-07-26T03:09:59;25.75;;;6.43;;
59926;SDS011;45784;55.156;73.270;2022-07-26T03:12:26;22.30;;;6.35;;
59926;SDS011;45784;55.156;73.270;2022-07-26T03:14:52;21.33;;;6.22;;
59926;SDS011;45784;55.156;73.270;2022-07-26T03:17:19;24.65;;;6.72;;
59926;SDS011;45784;55.156;73.270;2022-07-26T03:20:02;20.33;;;6.25;;
59926;SDS011;45784;55.156;73.270;2022-07-26T03:22:29;15.65;;;6.00;;
59926;SDS011;45784;55.156;73.270;2022-07-26T03:24:56;21.60;;;5.75;;
59926;SDS011;45784;55.156;73.270;2022-07-26T03:27:23;22.40;;;6.47;;
59926;SDS011;45784;55.156;73.270;2022-07-26T03:29:50;15.95;;;5.90;;
59926;SDS011;45784;55.156;73.270;2022-07-26T03:32:17;16.35;;;5.60;;
59926;SDS011;45784;55.156;73.270;2022-07-26T03:34:43;17.27;;;6.20;;
59926;SDS011;45784;55.156;73.270;2022-07-26T03:37:10;18.23;;;6.18;;
59926;SDS011;45784;55.156;73.270;2022-07-26T03:39:37;18.23;;;6.20;;
59926;SDS011;45784;55.156;73.270;2022-07-26T03:42:05;17.50;;;6.55;;
59926;SDS011;45784;55.156;73.270;2022-07-26T03:44:32;18.30;;;6.10;;
59926;SDS011;45784;55.156;73.270;2022-07-26T03:46:59;14.68;;;6.10;;
59926;SDS011;45784;55.156;73.270;2022-07-26T03:49:26;15.77;;;5.20;;
59926;SDS011;45784;55.156;73.270;2022-07-26T03:51:53;11.40;;;5.15;;
59926;SDS011;45784;55.156;73.270;2022-07-26T03:54:20;11.35;;;5.47;;
59926;SDS011;45784;55.156;73.270;2022-07-26T03:56:47;15.07;;;5.45;;
59926;SDS011;45784;55.156;73.270;2022-07-26T03:59:14;28.80;;;5.90;;
59926;SDS011;45784;55.156;73.270;2022-07-26T04:01:44;16.80;;;5.40;;
59926;SDS011;45784;55.156;73.270;2022-07-26T04:04:13;12.90;;;5.65;;
59926;SDS011;45784;55.156;73.270;2022-07-26T04:06:43;14.27;;;5.03;;
59926;SDS011;45784;55.156;73.270;2022-07-26T04:09:12;11.25;;;5.13;;
59926;SDS011;45784;55.156;73.270;2022-07-26T04:11:40;16.40;;;4.93;;
59926;SDS011;45784;55.156;73.270;2022-07-26T04:14:08;20.83;;;5.80;;
59926;SDS011;45784;55.156;73.270;2022-07-26T04:16:36;21.90;;;5.72;;
59926;SDS011;45784;55.156;73.270;2022-07-26T04:19:03;15.63;;;5.88;;
59926;SDS011;45784;55.156;73.270;2022-07-26T04:21:29;23.20;;;5.80;;
59926;SDS011;45784;55.156;73.270;2022-07-26T04:23:56;22.10;;;5.50;;
59926;SDS011;45784;55.156;73.270;2022-07-26T04:26:23;13.73;;;5.50;;
59926;SDS011;45784;55.156;73.270;2022-07-26T04:28:50;65.68;;;43.58;;
59926;SDS011;45784;55.156;73.270;2022-07-26T04:31:17;56.13;;;34.40;;
59926;SDS011;45784;55.156;73.270;2022-07-26T04:33:44;27.50;;;11.18;;
59926;SDS011;45784;55.156;73.270;2022-07-26T04:36:10;22.50;;;6.03;;
59926;SDS011;45784;55.156;73.270;2022-07-26T04:38:37;32.13;;;6.78;;
59926;SDS011;45784;55.156;73.270;2022-07-26T04:41:04;22.48;;;6.25;;
59926;SDS011;45784;55.156;73.270;2022-07-26T04:43:31;17.98;;;5.57;;
59926;SDS011;45784;55.156;73.270;2022-07-26T04:45:58;23.65;;;5.97;;
59926;SDS011;45784;55.156;73.270;2022-07-26T04:48:25;19.67;;;5.55;;
59926;SDS011;45784;55.156;73.270;2022-07-26T04:50:52;15.98;;;5.50;;
59926;SDS011;45784;55.156;73.270;2022-07-26T04:53:19;15.35;;;5.13;;
59926;SDS011;45784;55.156;73.270;2022-07-26T04:55:46;17.95;;;5.22;;
59926;SDS011;45784;55.156;73.270;2022-07-26T04:58:13;15.82;;;4.85;;
59926;SDS011;45784;55.156;73.270;2022-07-26T05:00:40;23.88;;;4.93;;
59926;SDS011;45784;55.156;73.270;2022-07-26T05:03:07;15.25;;;5.18;;
59926;SDS011;45784;55.156;73.270;2022-07-26T05:05:33;19.48;;;4.72;;
59926;SDS011;45784;55.156;73.270;2022-07-26T05:08:01;12.75;;;4.60;;
59926;SDS011;45784;55.156;73.270;2022-07-26T05:10:30;28.65;;;6.00;;
59926;SDS011;45784;55.156;73.270;2022-07-26T05:13:01;15.43;;;5.43;;
59926;SDS011;45784;55.156;73.270;2022-07-26T05:15:30;17.70;;;4.82;;
59926;SDS011;45784;55.156;73.270;2022-07-26T05:18:01;17.67;;;4.65;;
59926;SDS011;45784;55.156;73.270;2022-07-26T05:20:30;13.88;;;4.90;;
59926;SDS011;45784;55.156;73.270;2022-07-26T05:22:57;8.43;;;4.20;;
59926;SDS011;45784;55.156;73.270;2022-07-26T05:25:24;24.20;;;5.03;;
59926;SDS011;45784;55.156;73.270;2022-07-26T05:27:52;25.30;;;5.00;;
59926;SDS011;45784;55.156;73.270;2022-07-26T05:30:18;17.48;;;4.65;;
59926;SDS011;45784;55.156;73.270;2022-07-26T05:32:45;22.20;;;5.30;;
59926;SDS011;45784;55.156;73.270;2022-07-26T05:35:12;64.15;;;9.07;;
59926;SDS011;45784;55.156;73.270;2022-07-26T05:37:39;31.65;;;9.85;;
59926;SDS011;45784;55.156;73.270;2022-07-26T05:40:06;36.40;;;6.28;;
59926;SDS011;45784;55.156;73.270;2022-07-26T05:42:33;44.42;;;6.45;;
59926;SDS011;45784;55.156;73.270;2022-07-26T05:45:00;94.13;;;11.65;;
59926;SDS011;45784;55.156;73.270;2022-07-26T05:47:27;83.40;;;13.60;;
59926;SDS011;45784;55.156;73.270;2022-07-26T05:49:54;101.18;;;13.32;;
59926;SDS011;45784;55.156;73.270;2022-07-26T05:52:21;47.95;;;8.80;;
59926;SDS011;45784;55.156;73.270;2022-07-26T05:54:48;71.00;;;11.75;;
59926;SDS011;45784;55.156;73.270;2022-07-26T05:57:15;79.13;;;12.88;;
59926;SDS011;45784;55.156;73.270;2022-07-26T05:59:42;72.22;;;11.20;;
59926;SDS011;45784;55.156;73.270;2022-07-26T06:02:09;85.72;;;14.85;;
59926;SDS011;45784;55.156;73.270;2022-07-26T06:04:35;57.67;;;11.25;;
59926;SDS011;45784;55.156;73.270;2022-07-26T06:07:02;59.15;;;10.93;;
59926;SDS011;45784;55.156;73.270;2022-07-26T06:09:29;58.03;;;8.35;;
59926;SDS011;45784;55.156;73.270;2022-07-26T06:11:56;32.00;;;5.68;;
59926;SDS011;45784;55.156;73.270;2022-07-26T06:14:23;51.40;;;7.05;;
59926;SDS011;45784;55.156;73.270;2022-07-26T06:16:50;83.18;;;10.02;;
59926;SDS011;45784;55.156;73.270;2022-07-26T06:19:17;117.95;;;13.63;;
59926;SDS011;45784;55.156;73.270;2022-07-26T06:21:44;93.53;;;12.50;;
59926;SDS011;45784;55.156;73.270;2022-07-26T06:24:11;65.78;;;10.23;;
59926;SDS011;45784;55.156;73.270;2022-07-26T06:26:38;21.25;;;4.22;;
59926;SDS011;45784;55.156;73.270;2022-07-26T06:29:05;29.70;;;6.30;;
59926;SDS011;45784;55.156;73.270;2022-07-26T06:31:32;46.88;;;7.43;;
59926;SDS011;45784;55.156;73.270;2022-07-26T06:33:59;66.30;;;10.02;;
59926;SDS011;45784;55.156;73.270;2022-07-26T06:36:26;70.20;;;11.57;;
59926;SDS011;45784;55.156;73.270;2022-07-26T06:38:53;57.92;;;9.65;;
59926;SDS011;45784;55.156;73.270;2022-07-26T06:41:20;51.00;;;8.02;;
59926;SDS011;45784;55.156;73.270;2022-07-26T06:43:47;36.45;;;5.70;;
59926;SDS011;45784;55.156;73.270;2022-07-26T06:46:14;42.08;;;8.15;;
59926;SDS011;45784;55.156;73.270;2022-07-26T06:48:42;52.45;;;9.23;;
59926;SDS011;45784;55.156;73.270;2022-07-26T06:51:08;50.53;;;7.57;;
59926;SDS011;45784;55.156;73.270;2022-07-26T06:53:35;31.42;;;6.40;;
59926;SDS011;45784;55.156;73.270;2022-07-26T06:56:02;13.00;;;3.75;;
59926;SDS011;45784;55.156;73.270;2022-07-26T06:58:30;19.98;;;3.28;;
59926;SDS011;45784;55.156;73.270;2022-07-26T07:00:57;5.25;;;2.65;;
59926;SDS011;45784;55.156;73.270;2022-07-26T07:03:23;14.40;;;3.20;;
59926;SDS011;45784;55.156;73.270;2022-07-26T07:05:50;25.65;;;9.55;;
59926;SDS011;45784;55.156;73.270;2022-07-26T07:08:17;21.42;;;3.75;;
59926;SDS011;45784;55.156;73.270;2022-07-26T07:10:46;31.40;;;5.40;;
59926;SDS011;45784;55.156;73.270;2022-07-26T07:13:13;27.88;;;5.60;;
59926;SDS011;45784;55.156;73.270;2022-07-26T07:15:40;42.72;;;6.90;;
59926;SDS011;45784;55.156;73.270;2022-07-26T07:18:06;51.75;;;7.95;;
59926;SDS011;45784;55.156;73.270;2022-07-26T07:20:33;21.15;;;4.65;;
59926;SDS011;45784;55.156;73.270;2022-07-26T07:23:00;22.17;;;3.80;;
59926;SDS011;45784;55.156;73.270;2022-07-26T07:25:27;40.75;;;6.68;;
59926;SDS011;45784;55.156;73.270;2022-07-26T07:27:53;50.85;;;6.85;;
59926;SDS011;45784;55.156;73.270;2022-07-26T07:30:20;18.00;;;3.85;;
59926;SDS011;45784;55.156;73.270;2022-07-26T07:32:47;15.27;;;2.90;;
59926;SDS011;45784;55.156;73.270;2022-07-26T07:35:14;36.00;;;4.97;;
59926;SDS011;45784;55.156;73.270;2022-07-26T07:37:41;18.23;;;4.22;;
59926;SDS011;45784;55.156;73.270;2022-07-26T07:40:08;33.55;;;5.75;;
59926;SDS011;45784;55.156;73.270;2022-07-26T07:42:35;28.20;;;6.03;;
59926;SDS011;45784;55.156;73.270;2022-07-26T07:45:02;65.30;;;8.15;;
59926;SDS011;45784;55.156;73.270;2022-07-26T07:47:34;52.22;;;6.40;;
59926;SDS011;45784;55.156;73.270;2022-07-26T07:50:00;38.03;;;5.03;;
59926;SDS011;45784;55.156;73.270;2022-07-26T07:52:27;40.30;;;7.18;;
59926;SDS011;45784;55.156;73.270;2022-07-26T07:54:54;46.35;;;6.45;;
59926;SDS011;45784;55.156;73.270;2022-07-26T07:57:21;48.20;;;8.10;;
59926;SDS011;45784;55.156;73.270;2022-07-26T07:59:48;17.35;;;2.83;;
59926;SDS011;45784;55.156;73.270;2022-07-26T08:02:14;19.75;;;2.92;;
59926;SDS011;45784;55.156;73.270;2022-07-26T08:04:41;18.63;;;2.90;;
59926;SDS011;45784;55.156;73.270;2022-07-26T08:07:08;28.98;;;5.70;;
59926;SDS011;45784;55.156;73.270;2022-07-26T08:09:35;41.08;;;6.78;;
59926;SDS011;45784;55.156;73.270;2022-07-26T08:12:02;38.70;;;6.35;;
59926;SDS011;45784;55.156;73.270;2022-07-26T08:14:28;45.85;;;6.95;;
59926;SDS011;45784;55.156;73.270;2022-07-26T08:16:55;50.22;;;7.10;;
59926;SDS011;45784;55.156;73.270;2022-07-26T08:19:22;18.27;;;4.38;;
59926;SDS011;45784;55.156;73.270;2022-07-26T08:21:49;26.90;;;3.42;;
59926;SDS011;45784;55.156;73.270;2022-07-26T08:24:15;26.42;;;3.65;;
59926;SDS011;45784;55.156;73.270;2022-07-26T08:26:42;31.10;;;5.82;;
59926;SDS011;45784;55.156;73.270;2022-07-26T08:29:09;41.28;;;5.93;;
59926;SDS011;45784;55.156;73.270;2022-07-26T08:31:36;27.33;;;4.20;;
59926;SDS011;45784;55.156;73.270;2022-07-26T08:34:03;23.85;;;4.70;;
59926;SDS011;45784;55.156;73.270;2022-07-26T08:36:29;50.63;;;7.40;;
59926;SDS011;45784;55.156;73.270;2022-07-26T08:38:56;26.30;;;3.53;;
59926;SDS011;45784;55.156;73.270;2022-07-26T08:41:23;18.98;;;3.80;;
59926;SDS011;45784;55.156;73.270;2022-07-26T08:43:50;18.05;;;3.80;;
59926;SDS011;45784;55.156;73.270;2022-07-26T08:46:17;15.80;;;3.22;;
59926;SDS011;45784;55.156;73.270;2022-07-26T08:48:43;23.00;;;3.78;;
59926;SDS011;45784;55.156;73.270;2022-07-26T08:51:10;11.07;;;1.95;;
59926;SDS011;45784;55.156;73.270;2022-07-26T08:53:38;12.48;;;2.28;;
59926;SDS011;45784;55.156;73.270;2022-07-26T08:56:05;21.45;;;3.88;;
59926;SDS011;45784;55.156;73.270;2022-07-26T08:58:33;17.52;;;3.20;;
59926;SDS011;45784;55.156;73.270;2022-07-26T09:01:05;8.10;;;2.47;;
59926;SDS011;45784;55.156;73.270;2022-07-26T09:03:40;5.50;;;3.30;;
59926;SDS011;45784;55.156;73.270;2022-07-26T09:06:12;13.63;;;2.35;;
59926;SDS011;45784;55.156;73.270;2022-07-26T09:08:41;5.05;;;2.00;;
59926;SDS011;45784;55.156;73.270;2022-07-26T09:11:28;12.05;;;3.53;;
59926;SDS011;45784;55.156;73.270;2022-07-26T09:14:00;28.50;;;5.63;;
59926;SDS011;45784;55.156;73.270;2022-07-26T09:16:29;14.93;;;2.40;;
59926;SDS011;45784;55.156;73.270;2022-07-26T09:19:13;9.30;;;1.92;;
59926;SDS011;45784;55.156;73.270;2022-07-26T09:21:44;6.65;;;2.05;;
59926;SDS011;45784;55.156;73.270;2022-07-26T09:24:47;20.00;;;2.42;;
59926;SDS011;45784;55.156;73.270;2022-07-26T09:27:12;47.63;;;6.32;;
59926;SDS011;45784;55.156;73.270;2022-07-26T09:29:51;26.00;;;4.80;;
59926;SDS011;45784;55.156;73.270;2022-07-26T09:32:20;40.17;;;5.07;;
59926;SDS011;45784;55.156;73.270;2022-07-26T09:34:49;27.88;;;5.65;;
59926;SDS011;45784;55.156;73.270;2022-07-26T09:37:17;41.08;;;5.35;;
59926;SDS011;45784;55.156;73.270;2022-07-26T09:39:58;24.50;;;4.45;;
59926;SDS011;45784;55.156;73.270;2022-07-26T09:42:26;17.63;;;2.60;;
59926;SDS011;45784;55.156;73.270;2022-07-26T09:44:54;11.48;;;3.08;;
59926;SDS011;45784;55.156;73.270;2022-07-26T09:47:23;5.28;;;1.52;;
59926;SDS011;45784;55.156;73.270;2022-07-26T09:50:08;16.08;;;2.50;;
59926;SDS011;45784;55.156;73.270;2022-07-26T09:52:39;16.92;;;2.90;;
59926;SDS011;45784;55.156;73.270;2022-07-26T09:55:06;13.68;;;3.80;;
59926;SDS011;45784;55.156;73.270;2022-07-26T09:57:33;51.58;;;5.80;;
59926;SDS011;45784;55.156;73.270;2022-07-26T10:00:01;40.65;;;6.10;;
59926;SDS011;45784;55.156;73.270;2022-07-26T10:02:32;50.50;;;6.00;;
59926;SDS011;45784;55.156;73.270;2022-07-26T10:04:59;31.17;;;5.95;;
59926;SDS011;45784;55.156;73.270;2022-07-26T10:07:26;28.77;;;4.70;;
59926;SDS011;45784;55.156;73.270;2022-07-26T10:12:51;26.88;;;3.95;;
59926;SDS011;45784;55.156;73.270;2022-07-26T10:18:40;8.25;;;1.73;;
59926;SDS011;45784;55.156;73.270;2022-07-26T10:23:49;7.07;;;1.98;;
59926;SDS011;45784;55.156;73.270;2022-07-26T10:34:35;11.00;;;3.40;;
59926;SDS011;45784;55.156;73.270;2022-07-26T10:37:08;18.02;;;6.35;;
59926;SDS011;45784;55.156;73.270;2022-07-26T10:39:37;50.67;;;20.27;;
59926;SDS011;45784;55.156;73.270;2022-07-26T10:42:05;15.68;;;1.85;;
59926;SDS011;45784;55.156;73.270;2022-07-26T10:44:38;56.95;;;8.30;;
59926;SDS011;45784;55.156;73.270;2022-07-26T10:47:13;78.90;;;17.65;;
59926;SDS011;45784;55.156;73.270;2022-07-26T10:49:42;39.78;;;5.88;;
59926;SDS011;45784;55.156;73.270;2022-07-26T10:52:22;33.25;;;5.30;;
59926;SDS011;45784;55.156;73.270;2022-07-26T10:59:55;12.85;;;3.10;;
59926;SDS011;45784;55.156;73.270;2022-07-26T11:02:26;8.70;;;2.15;;
59926;SDS011;45784;55.156;73.270;2022-07-26T11:05:00;13.02;;;5.40;;
59926;SDS011;45784;55.156;73.270;2022-07-26T11:07:58;7.03;;;1.70;;
59926;SDS011;45784;55.156;73.270;2022-07-26T11:10:42;10.93;;;2.45;;
59926;SDS011;45784;55.156;73.270;2022-07-26T11:15:40;15.18;;;2.70;;
59926;SDS011;45784;55.156;73.270;2022-07-26T11:20:53;25.20;;;17.15;;
59926;SDS011;45784;55.156;73.270;2022-07-26T11:28:50;8.73;;;3.47;;
59926;SDS011;45784;55.156;73.270;2022-07-26T11:31:25;28.17;;;4.63;;
59926;SDS011;45784;55.156;73.270;2022-07-26T11:33:59;17.30;;;2.67;;
59926;SDS011;45784;55.156;73.270;2022-07-26T11:39:02;19.45;;;5.13;;
59926;SDS011;45784;55.156;73.270;2022-07-26T11:41:31;15.32;;;3.58;;
59926;SDS011;45784;55.156;73.270;2022-07-26T11:43:59;8.75;;;2.50;;
59926;SDS011;45784;55.156;73.270;2022-07-26T11:46:33;19.35;;;3.30;;
59926;SDS011;45784;55.156;73.270;2022-07-26T11:49:11;13.50;;;2.10;;
59926;SDS011;45784;55.156;73.270;2022-07-26T11:51:52;5.43;;;2.17;;
59926;SDS011;45784;55.156;73.270;2022-07-26T11:54:20;7.93;;;2.10;;
59926;SDS011;45784;55.156;73.270;2022-07-26T11:56:58;12.07;;;2.63;;
59926;SDS011;45784;55.156;73.270;2022-07-26T11:59:28;10.43;;;1.95;;
59926;SDS011;45784;55.156;73.270;2022-07-26T12:02:03;9.85;;;2.38;;
59926;SDS011;45784;55.156;73.270;2022-07-26T12:04:33;7.78;;;2.30;;
59926;SDS011;45784;55.156;73.270;2022-07-26T12:07:13;15.50;;;2.25;;
59926;SDS011;45784;55.156;73.270;2022-07-26T12:12:23;28.23;;;8.80;;
59926;SDS011;45784;55.156;73.270;2022-07-26T12:14:56;15.45;;;4.90;;
59926;SDS011;45784;55.156;73.270;2022-07-26T12:17:27;9.82;;;2.13;;
59926;SDS011;45784;55.156;73.270;2022-07-26T12:19:55;14.90;;;2.15;;
59926;SDS011;45784;55.156;73.270;2022-07-26T12:22:23;15.70;;;2.72;;
59926;SDS011;45784;55.156;73.270;2022-07-26T12:27:21;16.60;;;2.15;;
59926;SDS011;45784;55.156;73.270;2022-07-26T12:32:37;8.35;;;2.75;;
59926;SDS011;45784;55.156;73.270;2022-07-26T12:37:36;9.07;;;2.40;;
59926;SDS011;45784;55.156;73.270;2022-07-26T12:40:14;6.85;;;2.58;;
59926;SDS011;45784;55.156;73.270;2022-07-26T12:45:31;10.68;;;2.20;;
59926;SDS011;45784;55.156;73.270;2022-07-26T12:48:01;8.15;;;2.08;;
59926;SDS011;45784;55.156;73.270;2022-07-26T12:50:32;12.07;;;2.00;;
59926;SDS011;45784;55.156;73.270;2022-07-26T12:53:03;8.98;;;2.50;;
59926;SDS011;45784;55.156;73.270;2022-07-26T12:55:31;9.88;;;2.03;;
59926;SDS011;45784;55.156;73.270;2022-07-26T12:57:59;9.68;;;5.60;;
59926;SDS011;45784;55.156;73.270;2022-07-26T13:00:26;9.10;;;4.03;;
59926;SDS011;45784;55.156;73.270;2022-07-26T13:02:54;5.85;;;2.50;;
59926;SDS011;45784;55.156;73.270;2022-07-26T13:05:21;8.32;;;3.00;;
59926;SDS011;45784;55.156;73.270;2022-07-26T13:07:48;11.15;;;2.10;;
59926;SDS011;45784;55.156;73.270;2022-07-26T13:10:16;9.90;;;2.47;;
59926;SDS011;45784;55.156;73.270;2022-07-26T13:12:43;12.88;;;2.50;;
59926;SDS011;45784;55.156;73.270;2022-07-26T13:15:10;6.63;;;2.22;;
59926;SDS011;45784;55.156;73.270;2022-07-26T13:17:37;18.70;;;3.40;;
59926;SDS011;45784;55.156;73.270;2022-07-26T13:20:04;9.10;;;2.63;;
59926;SDS011;45784;55.156;73.270;2022-07-26T13:22:31;16.73;;;3.28;;
59926;SDS011;45784;55.156;73.270;2022-07-26T13:24:58;19.95;;;5.90;;
59926;SDS011;45784;55.156;73.270;2022-07-26T13:27:25;21.80;;;5.88;;
59926;SDS011;45784;55.156;73.270;2022-07-26T13:29:52;53.47;;;7.88;;
59926;SDS011;45784;55.156;73.270;2022-07-26T13:32:18;23.02;;;5.40;;
59926;SDS011;45784;55.156;73.270;2022-07-26T13:34:45;49.30;;;18.52;;
59926;SDS011;45784;55.156;73.270;2022-07-26T13:37:12;22.50;;;7.72;;
59926;SDS011;45784;55.156;73.270;2022-07-26T13:39:39;43.53;;;4.95;;
59926;SDS011;45784;55.156;73.270;2022-07-26T13:42:06;59.92;;;40.78;;
59926;SDS011;45784;55.156;73.270;2022-07-26T13:44:33;16.83;;;10.55;;
59926;SDS011;45784;55.156;73.270;2022-07-26T13:46:59;24.65;;;4.47;;
59926;SDS011;45784;55.156;73.270;2022-07-26T13:49:27;12.95;;;2.42;;
59926;SDS011;45784;55.156;73.270;2022-07-26T13:51:55;23.73;;;8.98;;
59926;SDS011;45784;55.156;73.270;2022-07-26T13:54:28;24.60;;;6.82;;
59926;SDS011;45784;55.156;73.270;2022-07-26T13:56:58;16.63;;;3.08;;
59926;SDS011;45784;55.156;73.270;2022-07-26T13:59:26;14.10;;;2.30;;
59926;SDS011;45784;55.156;73.270;2022-07-26T14:01:53;14.13;;;2.60;;
59926;SDS011;45784;55.156;73.270;2022-07-26T14:04:21;13.68;;;2.30;;
59926;SDS011;45784;55.156;73.270;2022-07-26T14:06:48;18.55;;;2.35;;
59926;SDS011;45784;55.156;73.270;2022-07-26T14:09:16;19.75;;;2.80;;
59926;SDS011;45784;55.156;73.270;2022-07-26T14:11:44;17.52;;;4.05;;
59926;SDS011;45784;55.156;73.270;2022-07-26T14:14:11;10.40;;;4.13;;
59926;SDS011;45784;55.156;73.270;2022-07-26T14:16:38;27.38;;;15.98;;
59926;SDS011;45784;55.156;73.270;2022-07-26T14:19:06;59.05;;;13.00;;
59926;SDS011;45784;55.156;73.270;2022-07-26T14:21:33;30.73;;;6.50;;
59926;SDS011;45784;55.156;73.270;2022-07-26T14:24:00;38.75;;;12.15;;
59926;SDS011;45784;55.156;73.270;2022-07-26T14:26:27;134.43;;;90.32;;
59926;SDS011;45784;55.156;73.270;2022-07-26T14:28:54;66.65;;;36.10;;
59926;SDS011;45784;55.156;73.270;2022-07-26T14:31:21;37.70;;;18.25;;
59926;SDS011;45784;55.156;73.270;2022-07-26T14:33:48;46.38;;;17.00;;
59926;SDS011;45784;55.156;73.270;2022-07-26T14:36:15;89.55;;;45.85;;
59926;SDS011;45784;55.156;73.270;2022-07-26T14:38:42;52.20;;;27.70;;
59926;SDS011;45784;55.156;73.270;2022-07-26T14:41:10;40.15;;;7.57;;
59926;SDS011;45784;55.156;73.270;2022-07-26T14:43:37;68.40;;;20.95;;
59926;SDS011;45784;55.156;73.270;2022-07-26T14:46:04;157.60;;;58.30;;
59926;SDS011;45784;55.156;73.270;2022-07-26T14:48:31;119.95;;;60.13;;
59926;SDS011;45784;55.156;73.270;2022-07-26T14:50:58;62.20;;;21.42;;
59926;SDS011;45784;55.156;73.270;2022-07-26T14:53:25;68.55;;;31.17;;
59926;SDS011;45784;55.156;73.270;2022-07-26T14:55:52;66.55;;;20.00;;
59926;SDS011;45784;55.156;73.270;2022-07-26T14:58:19;109.30;;;14.93;;
59926;SDS011;45784;55.156;73.270;2022-07-26T15:00:45;457.10;;;326.55;;
59926;SDS011;45784;55.156;73.270;2022-07-26T15:03:12;320.92;;;204.07;;
59926;SDS011;45784;55.156;73.270;2022-07-26T15:05:39;185.20;;;108.60;;
59926;SDS011;45784;55.156;73.270;2022-07-26T15:08:06;108.68;;;50.63;;
59926;SDS011;45784;55.156;73.270;2022-07-26T15:10:33;63.53;;;21.10;;
59926;SDS011;45784;55.156;73.270;2022-07-26T15:13:01;29.40;;;8.35;;
59926;SDS011;45784;55.156;73.270;2022-07-26T15:15:29;117.10;;;72.25;;